• Join FlightAware (Why Join?)
  • Login
  • US Flag 
02:13AM EDT


 

Airport Tracker/Info


-or-


 

Live Flight TrackerFlight Track Log ✈ EJA922 ✈ 10-Nov-2013 ✈ KOAK - KTEB

Flight Track Log - Related Links

Times and Time Zones

All times are in EST time to prevent confusion due to time zone crossing. See the EJA922 flight status page for this flight to view local times or setup timezone preferences in your user account.

Time Position Orientation Groundspeed Altitude Reporting Facility
EST Latitude Longitude Course Direction KTS MPH feet Rate Location/Type
02:14PM 37.7500 -122.3000 70° East 230 265 2,900  Level Northern Cal TRACON
02:15PM 37.8167 -122.3167 349° North 292 336 5,400 2,520 Climbing Northern Cal TRACON
02:16PM 37.9000 -122.3000 North 292 336 8,000 2,520 Climbing Northern Cal TRACON
02:17PM 37.9667 -122.2167 45° Northeast 305 351 10,500 1,680 Climbing Northern Cal TRACON
02:18PM 38.0167 -122.1333 53° Northeast 348 400 11,400 1,200 Climbing Northern Cal TRACON
02:19PM 38.0600 -122.0811 43° Northeast 371 427 12,300 1,980 Climbing Oakland Center
02:20PM 38.0198 -121.1817 70° East  Level Estimated
02:20PM 38.1333 -121.9789 48° Northeast 389 448 14,500  Level Oakland Center
02:21PM 38.2086 -121.8756 47° Northeast 398 458 16,400 1,680 Climbing Oakland Center
02:22PM 38.2881 -121.7669 47° Northeast 416 479 18,000 1,620 Climbing Oakland Center
02:23PM 38.3669 -121.6567 48° Northeast 422 486 19,800 1,680 Climbing Oakland Center
02:24PM 38.4436 -121.5486 48° Northeast 431 496 21,500 1,620 Climbing Oakland Center
02:25PM 38.5233 -121.4161 52° Northeast 446 513 23,200 1,740 Climbing Oakland Center
02:26PM 38.5958 -121.2878 54° Northeast 446 513 25,100 1,740 Climbing Oakland Center
02:27PM 38.6767 -121.1517 53° Northeast 458 527 26,800 1,500 Climbing Oakland Center
02:28PM 38.7497 -121.0158 55° Northeast 461 531 28,200 1,260 Climbing Oakland Center
02:29PM 38.8225 -120.8350 63° Northeast 471 542 29,500 1,260 Climbing Oakland Center
02:30PM 38.8839 -120.6814 63° Northeast 481 554 30,800 1,440 Climbing Oakland Center
02:31PM 38.9456 -120.5275 63° Northeast 483 556 32,500 1,680 Climbing Oakland Center
02:32PM 39.0058 -120.3769 63° Northeast 475 547 34,300 1,560 Climbing Oakland Center
02:33PM 39.0675 -120.2258 62° Northeast 476 548 35,700 1,440 Climbing Oakland Center
02:34PM 39.1281 -120.0728 63° Northeast 479 551 37,300 1,320 Climbing Oakland Center
02:35PM 39.1889 -119.9186 63° Northeast 481 554 38,500 780 Climbing Oakland Center
02:36PM 39.2519 -119.7600 63° Northeast 493 567 39,000 240 Climbing Oakland Center
02:37PM 39.3308 -119.5614 63° Northeast 520 598 39,000  Level Oakland Center
02:38PM 39.3989 -119.3892 63° Northeast 538 619 39,000  Level Oakland Center
02:39PM 39.4669 -119.2122 63° Northeast 544 626 39,000  Level Oakland Center
02:40PM 39.5350 -119.0353 63° Northeast 544 626 39,000  Level Oakland Center
02:41PM 39.6042 -118.8578 63° Northeast 542 624 39,000  Level Oakland Center
02:42PM 39.6725 -118.6781 64° Northeast 544 626 39,000  Level Oakland Center
02:43PM 39.7397 -118.5006 64° Northeast 543 625 39,000  Level Oakland Center
02:44PM 39.8058 -118.3228 64° Northeast 543 625 39,000  Level Oakland Center
02:45PM 39.8711 -118.1456 64° Northeast 541 623 39,000  Level Oakland Center
02:46PM 39.9369 -117.9694 64° Northeast 540 621 39,000  Level Oakland Center
02:47PM 40.0019 -117.7928 64° Northeast 540 621 39,000  Level Oakland Center
02:48PM 40.0806 -117.5808 64° Northeast 540 621 39,000  Level Oakland Center
02:49PM 40.1264 -117.4528 65° Northeast 541 623 39,000  Level Salt Lake Center
02:50PM 40.1981 -117.2550 65° Northeast 539 620 39,000  Level Salt Lake Center
02:51PM 40.2589 -117.0867 65° Northeast 538 619 39,000  Level Salt Lake Center
02:52PM 40.3181 -116.9192 65° Northeast 536 617 39,000  Level Salt Lake Center
02:53PM 40.3875 -116.7286 64° Northeast 538 619 39,000  Level Salt Lake Center
02:54PM 40.4572 -116.5322 65° Northeast 537 618 39,000  Level Salt Lake Center
02:56PM 40.5167 -116.3642 65° Northeast 533 613 39,000  Level Salt Lake Center
02:57PM 40.5850 -116.1672 65° Northeast 530 610 39,000  Level Salt Lake Center
02:58PM 40.6433 -115.9961 66° East 536 617 39,000  Level Salt Lake Center
02:59PM 40.7117 -115.7978 66° East 535 616 39,000  Level Salt Lake Center
03:00PM 40.7694 -115.6258 66° East 535 616 39,000  Level Salt Lake Center
03:01PM 40.8378 -115.4261 66° East 535 616 39,000  Level Salt Lake Center
03:02PM 40.8956 -115.2539 66° East 536 617 39,000  Level Salt Lake Center
03:03PM 40.9642 -115.0536 66° East 536 617 39,000  Level Salt Lake Center
03:04PM 41.0222 -114.8803 66° East 537 618 39,000  Level Salt Lake Center
03:05PM 41.0786 -114.7139 66° East 535 616 39,000  Level Salt Lake Center
03:06PM 41.1486 -114.4975 67° East 534 615 39,000  Level Salt Lake Center
03:07PM 41.2069 -114.3153 67° East 536 617 39,000  Level Salt Lake Center
03:08PM 41.2658 -114.1333 67° East 537 618 39,000  Level Salt Lake Center
03:09PM 41.3244 -113.9517 67° East 536 617 39,000  Level Salt Lake Center
03:10PM 41.3700 -113.7631 72° East 537 618 39,000  Level Salt Lake Center
03:11PM 41.3814 -113.5639 86° East 541 623 39,000  Level Salt Lake Center
03:12PM 41.3928 -113.3653 86° East 540 621 39,000  Level Salt Lake Center
03:13PM 41.4083 -113.1269 85° East 539 620 39,000  Level Salt Lake Center
03:14PM 41.4208 -112.9253 85° East 544 626 39,000  Level Salt Lake Center
03:15PM 41.4325 -112.7264 85° East 541 623 39,000  Level Salt Lake Center
03:16PM 41.4442 -112.5264 85° East 541 623 39,000  Level Salt Lake Center
03:17PM 41.4544 -112.3253 86° East 543 625 39,000  Level Salt Lake Center
03:18PM 41.4656 -112.1244 86° East 541 623 39,000  Level Salt Lake Center
03:19PM 41.4761 -111.9228 86° East 541 623 39,000  Level Salt Lake Center
03:20PM 41.4864 -111.7206 86° East 543 625 39,000 240 Level Salt Lake Center
03:21PM 41.4983 -111.4794 86° East 540 621 39,500 660 Climbing Salt Lake Center
03:22PM 41.5075 -111.2831 86° East 531 611 40,400 720 Climbing Salt Lake Center
03:23PM 41.5153 -111.0900 87° East 523 602 41,000 240 Climbing Salt Lake Center
03:24PM 41.5244 -110.8972 86° East 529 609 41,000  Level Salt Lake Center
03:25PM 41.5342 -110.6750 87° East 538 619 41,000  Level Salt Lake Center
03:26PM 41.5414 -110.4844 87° East 539 620 41,000  Level Salt Lake Center
03:27PM 41.5475 -110.2936 87° East 538 619 41,000  Level Salt Lake Center
03:28PM 41.5564 -110.0714 87° East 538 619 41,000  Level Salt Lake Center
03:30PM 41.5636 -109.8825 87° East 533 613 41,000  Level Salt Lake Center
03:31PM 41.5706 -109.6589 88° East 537 618 41,000  Level Salt Lake Center
03:32PM 41.5769 -109.4681 87° East 537 618 41,000  Level Salt Lake Center
03:33PM 41.5842 -109.2453 87° East 533 613 41,000  Level Salt Lake Center
03:34PM 41.5897 -109.0500 88° East 538 619 41,000  Level Salt Lake Center
03:35PM 41.6017 -108.8581 85° East 535 616 41,000  Level Salt Lake Center
03:36PM 41.6197 -108.6361 84° East 535 616 41,000  Level Salt Lake Center
03:37PM 41.6328 -108.4450 85° East 538 619 41,000  Level Salt Lake Center
03:38PM 41.6472 -108.2547 84° East 538 619 41,000  Level Salt Lake Center
03:39PM 41.6644 -108.0342 84° East 536 617 41,000  Level Salt Lake Center
03:40PM 41.6772 -107.8444 85° East 535 616 41,000  Level Salt Lake Center
03:41PM 41.6864 -107.6842 86° East 535 616 41,000  Level Denver Center
03:42PM 41.7000 -107.4944 84° East 536 617 41,000  Level Denver Center
03:43PM 41.7144 -107.2728 85° East 536 617 41,000  Level Denver Center
03:44PM 41.7269 -107.0814 85° East 538 619 41,000  Level Denver Center
03:45PM 41.7392 -106.8572 86° East 542 624 41,000  Level Denver Center
03:46PM 41.7508 -106.6656 85° East 542 624 41,000  Level Denver Center
03:47PM 41.7636 -106.4350 86° East 544 626 41,000  Level Denver Center
03:48PM 41.7758 -106.2431 85° East 543 625 41,000  Level Denver Center
03:49PM 41.7856 -106.0494 86° East 545 627 41,000  Level Denver Center
03:50PM 41.7964 -105.8242 86° East 545 627 41,000  Level Denver Center
03:51PM 41.8067 -105.6339 86° East 540 621 41,000  Level Denver Center
03:52PM 41.8178 -105.4089 86° East 543 625 41,000  Level Denver Center
03:53PM 41.8264 -105.2161 87° East 542 624 41,000  Level Denver Center
03:54PM 41.8372 -104.9914 86° East 544 626 41,000  Level Denver Center
03:55PM 41.8453 -104.8000 87° East 543 625 41,000  Level Denver Center
03:56PM 41.8544 -104.5758 87° East 542 624 41,000  Level Denver Center
03:57PM 41.8611 -104.3847 87° East 540 621 41,000  Level Denver Center
03:58PM 41.8694 -104.1625 87° East 539 620 41,000  Level Denver Center
03:59PM 41.8772 -103.9708 87° East 541 623 41,000  Level Denver Center
04:00PM 41.8847 -103.7458 87° East 543 625 41,000  Level Denver Center
04:01PM 41.8908 -103.5528 88° East 544 626 41,000  Level Denver Center
04:02PM 41.9144 -103.3286 82° East 546 628 41,000  Level Denver Center
04:03PM 41.9414 -103.1397 79° East 540 621 41,000  Level Denver Center
04:04PM 41.9719 -102.9186 79° East 542 624 41,000  Level Denver Center
04:05PM 41.9978 -102.7264 80° East 547 629 41,000  Level Denver Center
04:06PM 42.0283 -102.5017 80° East 548 631 41,000  Level Denver Center
04:07PM 42.0536 -102.3081 80° East 550 633 41,000  Level Denver Center
04:08PM 42.0836 -102.0917 79° East 555 639 41,000  Level Denver Center
04:09PM 42.1072 -101.8961 81° East 554 638 41,000  Level Denver Center
04:10PM 42.1381 -101.6664 80° East 558 642 41,000  Level Denver Center
04:12PM 42.1606 -101.4719 81° East 551 634 41,000  Level Denver Center
04:13PM 42.1892 -101.2406 80° East 558 642 41,000  Level Denver Center
04:14PM 42.2131 -101.0431 81° East 557 641 41,000  Level Denver Center
04:15PM 42.2400 -100.8125 81° East 555 639 41,000  Level Denver Center
04:16PM 42.2639 -100.6147 81° East 557 641 41,000  Level Denver Center
04:17PM 42.2864 -100.4164 81° East 558 642 41,000  Level Denver Center
04:18PM 42.3067 -100.2394 81° East 559 643 41,000  Level Minneapolis Center
04:19PM 42.3294 -100.0314 82° East 559 643 41,000  Level Minneapolis Center
04:20PM 42.3569 -99.7797 82° East 562 647 41,000  Level Minneapolis Center
04:21PM 42.3800 -99.5689 82° East 565 650 41,000  Level Minneapolis Center
04:22PM 42.4025 -99.3606 82° East 561 646 41,000  Level Minneapolis Center
04:23PM 42.4236 -99.1483 82° East 564 649 41,000  Level Minneapolis Center
04:24PM 42.4453 -98.9378 82° East 563 648 41,000  Level Minneapolis Center
04:25PM 42.4664 -98.7256 82° East 566 651 41,000  Level Minneapolis Center
04:26PM 42.4797 -98.5125 85° East 565 650 41,000  Level Minneapolis Center
04:27PM 42.4900 -98.2986 86° East 567 652 41,000  Level Minneapolis Center
04:28PM 42.4994 -98.0836 87° East 569 655 41,000  Level Minneapolis Center
04:29PM 42.5103 -97.8239 87° East 573 659 41,000  Level Minneapolis Center
04:30PM 42.5203 -97.6275 86° East 569 655 41,000  Level Minneapolis Center
04:31PM 42.5292 -97.4128 87° East 569 655 41,000  Level Minneapolis Center
04:32PM 42.5372 -97.1958 87° East 573 659 41,000  Level Minneapolis Center
04:33PM 42.5467 -96.9364 87° East 574 661 41,000  Level Minneapolis Center
04:34PM 42.5544 -96.7206 87° East 575 662 41,000  Level Minneapolis Center
04:35PM 42.5611 -96.5036 88° East 574 661 41,000  Level Minneapolis Center
04:36PM 42.5681 -96.2856 87° East 576 663 41,000  Level Minneapolis Center
04:37PM 42.5742 -96.0686 88° East 576 663 41,000  Level Minneapolis Center
04:38PM 42.5803 -95.8497 88° East 578 665 41,000  Level Minneapolis Center
04:39PM 42.5864 -95.6317 88° East 577 664 41,000  Level Minneapolis Center
04:40PM 42.5911 -95.4122 88° East 580 667 41,000  Level Minneapolis Center
04:41PM 42.5964 -95.1469 88° East 583 671 41,000  Level Minneapolis Center
04:42PM 42.6008 -94.9283 88° East 581 669 41,000  Level Minneapolis Center
04:43PM 42.6047 -94.7086 89° East 582 670 41,000  Level Minneapolis Center
04:44PM 42.6061 -94.5014 89° East 582 670 41,000  Level Minneapolis Center
04:45PM 42.6078 -94.2833 89° East 584 672 41,000  Level Minneapolis Center
04:46PM 42.5981 -94.0231 93° East 582 670 41,000  Level Minneapolis Center
04:47PM 42.5872 -93.8053 94° East 583 671 41,000  Level Minneapolis Center
04:49PM 42.5775 -93.5900 93° East 579 666 41,000  Level Minneapolis Center
04:50PM 42.5675 -93.3717 93° East 584 672 41,000  Level Minneapolis Center
04:51PM 42.5503 -93.0653 94° East 582 670 41,000  Level Chicago Center
04:52PM 42.5375 -92.8450 94° East 590 679 41,000  Level Chicago Center
04:53PM 42.5250 -92.6258 94° East 590 679 41,000  Level Chicago Center
04:54PM 42.5117 -92.3639 94° East 588 677 41,000  Level Chicago Center
04:55PM 42.4969 -92.1436 95° East 593 682 41,000  Level Chicago Center
04:56PM 42.4842 -91.9269 94° East 592 681 41,000  Level Chicago Center
04:57PM 42.4706 -91.7128 95° East 587 676 41,000  Level Chicago Center
04:58PM 42.4536 -91.4525 95° East 591 680 41,000  Level Chicago Center
04:59PM 42.4381 -91.2375 96° East 586 674 41,000  Level Chicago Center
05:00PM 42.4225 -91.0200 95° East 589 678 41,000  Level Chicago Center
05:01PM 42.4064 -90.8003 96° East 593 682 41,000  Level Chicago Center
05:02PM 42.3906 -90.5375 95° East 591 680 41,000  Level Chicago Center
05:03PM 42.3783 -90.3158 94° East 595 685 41,000  Level Chicago Center
05:04PM 42.3656 -90.0953 94° East 594 684 41,000  Level Chicago Center
05:05PM 42.3531 -89.8756 94° East 598 688 41,000  Level Chicago Center
05:06PM 42.3375 -89.6117 94° East 593 682 41,000  Level Chicago Center
05:07PM 42.3242 -89.3892 95° East 595 685 41,000  Level Chicago Center
05:08PM 42.3094 -89.1675 95° East 596 686 41,000  Level Chicago Center
05:10PM 42.2944 -88.9444 95° East 600 690 41,000  Level Chicago Center
05:11PM 42.2769 -88.7011 95° East 604 695 41,000  Level Chicago Center
05:12PM 42.2608 -88.4772 95° East 602 693 41,000  Level Chicago Center
05:13PM 42.2442 -88.2522 96° East 602 693 41,000  Level Chicago Center
05:14PM 42.2269 -88.0278 96° East 602 693 41,000  Level Chicago Center
05:15PM 42.2100 -87.7575 95° East 602 693 41,000  Level Chicago Center
05:16PM 42.1989 -87.5322 94° East 602 693 41,000  Level Chicago Center
05:17PM 42.1861 -87.3067 94° East 604 695 41,000  Level Chicago Center
05:18PM 42.1775 -87.0792 93° East 609 701 41,000  Level Chicago Center
05:19PM 42.1836 -86.8514 88° East 612 704 41,000  Level Chicago Center
05:20PM 42.1947 -86.5908 87° East 611 703 41,000  Level Chicago Center
05:21PM 42.2017 -86.3625 88° East 608 700 41,000  Level Chicago Center
05:22PM 42.2075 -86.1350 88° East 607 699 41,000  Level Chicago Center
05:23PM 42.2133 -85.9239 88° East 611 703 41,000  Level Chicago Center
05:24PM 42.2197 -85.6511 88° East 612 704 41,000  Level Chicago Center
05:25PM 42.2231 -85.4208 89° East 616 709 41,000  Level Chicago Center
05:26PM 42.2294 -85.1914 88° East 617 710 41,000  Level Chicago Center
05:27PM 42.2356 -84.9572 88° East 625 719 41,000  Level Chicago Center
05:28PM 42.2383 -84.7269 89° East 621 715 41,000  Level Chicago Center
05:29PM 42.2419 -84.4503 89° East 619 712 41,000  Level Chicago Center
05:30PM 42.2453 -84.2197 89° East 618 711 41,000  Level Chicago Center
05:31PM 42.2464 -84.0161 90° East 616 709 41,000 480 Level Cleveland Center
05:32PM 42.2425 -83.7428 91° East 611 703 42,100 960 Climbing Cleveland Center
05:33PM 42.2336 -83.5197 93° East 597 687 43,000 420 Climbing Cleveland Center
05:34PM 42.2228 -83.2975 94° East 590 679 43,000  Level Cleveland Center
05:35PM 42.2133 -83.0575 93° East 589 678 43,000  Level Cleveland Center
05:36PM 42.2033 -82.8372 93° East 592 681 43,000  Level Cleveland Center
05:37PM 42.1925 -82.6164 94° East 592 681 43,000  Level Cleveland Center
05:38PM 42.1811 -82.3967 94° East 590 679 43,000  Level Cleveland Center
05:39PM 42.1700 -82.1756 94° East 593 682 43,000  Level Cleveland Center
05:41PM 42.1572 -81.9239 94° East 583 671 43,000  Level Cleveland Center
05:42PM 42.1453 -81.7072 94° East 576 663 43,000  Level Cleveland Center
05:43PM 42.1331 -81.4922 94° East 571 657 43,000  Level Cleveland Center
05:44PM 42.1200 -81.2756 95° East 572 658 43,000  Level Cleveland Center
05:45PM 42.1075 -81.0692 95° East 551 634 43,000  Level Cleveland Center
05:46PM 42.0950 -80.8642 95° East 543 625 43,000  Level Cleveland Center
05:47PM 42.0819 -80.6564 95° East 549 632 43,000  Level Cleveland Center
05:48PM 42.0686 -80.4442 95° East 559 643 43,000  Level Cleveland Center
05:49PM 42.0531 -80.1994 95° East 556 640 43,000  Level Cleveland Center
05:50PM 42.0367 -79.9881 96° East 562 647 43,000  Level Cleveland Center
05:51PM 42.0228 -79.7792 95° East 560 644 43,000  Level Cleveland Center
05:52PM 42.0072 -79.5697 96° East 565 650 43,000  Level Cleveland Center
05:53PM 41.9906 -79.3611 96° East 562 647 43,000  Level Cleveland Center
05:54PM 41.9758 -79.1514 95° East 565 650 43,000 -180 Level Cleveland Center
05:55PM 41.9539 -78.9008 97° East 564 649 42,700 -840 Descending Cleveland Center
05:56PM 41.9364 -78.6900 96° East 567 652 41,300 -1,500 Descending Cleveland Center
05:57PM 41.9189 -78.4819 96° East 564 649 39,700 -1,560 Descending Cleveland Center
05:58PM 41.9017 -78.2731 96° East 563 648 38,100 -1,560 Descending Cleveland Center
05:59PM 41.8822 -78.0628 97° East 567 652 36,500 -1,620 Descending Cleveland Center
06:00PM 41.8606 -77.8475 98° East 563 648 35,000 -780 Descending New York Center
06:01PM 41.8119 -77.6475 108° East 563 648 35,000 -5,580 Level New York Center
06:02PM 41.7619 -77.4617 110° East 574 661 24,000 -240 Descending New York Center
06:03PM 41.7081 -77.2700 111° Southeast 574 661 34,600 4,560 Climbing New York Center
06:04PM 41.6600 -77.0792 109° East 554 638 33,300 -1,380 Descending New York Center
06:05PM 41.6114 -76.8917 109° East 542 624 31,900 -1,800 Descending New York Center
06:06PM 41.6489 -76.6894 76° East 498 573 29,800 -1,740 Descending New York Center
06:07PM 41.6203 -76.5094 102° East 492 566 28,500 -1,440 Descending New York Center
06:08PM 41.5119 -76.4197 148° Southeast 431 496 26,900 -1,560 Descending New York Center
06:09PM 41.4486 -76.3092 127° Southeast 449 517 25,500 -1,860 Descending New York Center
06:10PM 41.3903 -76.1275 113° Southeast 478 550 23,300 -2,100 Descending New York Center
06:11PM 41.3475 -75.9636 109° East 473 544 21,300 -1,920 Descending New York Center
06:12PM 41.3061 -75.8142 110° East 453 521 19,500 -1,740 Descending New York Center
06:13PM 41.2661 -75.6731 111° Southeast 428 493 17,900 -1,920 Descending New York Center
06:14PM 41.2256 -75.5433 113° Southeast 389 448 15,700 -2,340 Descending New York Center
06:15PM 41.1789 -75.4078 115° Southeast 371 427 13,400 -2,280 Descending New York Center
06:16PM 41.1378 -75.2864 114° Southeast 366 421 11,300 -2,040 Descending New York Center
06:17PM 41.1003 -75.1739 114° Southeast 346 398 9,300 -1,920 Descending New York Center
06:18PM 41.0686 -75.0753 113° Southeast 330 380 7,500 -1,680 Descending New York Center
06:19PM 41.0458 -74.9528 104° East 314 361 6,000 -1,140 Descending New York Center
06:20PM 41.0433 -74.8508 92° East 308 354 5,300 -900 Descending New York Center
06:21PM 41.0433 -74.7272 90° East 308 354 4,200 -1,080 Descending New York Center
06:22PM 41.0383 -74.6194 93° East 303 349 3,200 -600 Descending New York Center
06:23PM 41.0356 -74.5150 92° East 292 336 3,000 -120 Descending New York Center
06:24PM 41.0347 -74.4047 91° East 292 336 3,000  Level New York Center
06:25PM 41.0333 -74.3000 91° East 289 333 3,100 -300 Climbing New York TRACON
06:26PM 41.0333 -74.2167 90° East 248 285 2,500 -480 Descending New York TRACON
06:27PM 41.0333 -74.1167 90° East 242 278 2,100 -240 Descending New York TRACON
06:28PM 41.0000 -74.0500 124° Southeast 237 273 2,100  Level New York TRACON
06:29PM 40.9500 -74.0500 180° South 197 227 2,100 -480 Level New York TRACON
06:30PM 40.9000 -74.0500 180° South 163 188 1,300 -900 Descending New York TRACON
06:31PM 40.8667 -74.0333 159° South 135 155 400 -900 Descending New York TRACON
06:34PM 40.8500 -74.0500 339° North  Level FlightAware Approximate